sensor_id;sensor_type;location;lat;lon;timestamp;temperature;humidity
14737;DHT22;7459;53.590;10.062;2023-03-01T00:01:12;2.50;99.90
14737;DHT22;7459;53.590;10.062;2023-03-01T00:03:40;2.50;99.90
14737;DHT22;7459;53.590;10.062;2023-03-01T00:06:05;2.60;99.90
14737;DHT22;7459;53.590;10.062;2023-03-01T00:08:31;2.60;99.90
14737;DHT22;7459;53.590;10.062;2023-03-01T00:11:10;2.60;99.90
14737;DHT22;7459;53.590;10.062;2023-03-01T00:13:40;2.60;99.90
14737;DHT22;7459;53.590;10.062;2023-03-01T00:16:08;2.60;99.90
14737;DHT22;7459;53.590;10.062;2023-03-01T00:18:35;2.60;99.90
14737;DHT22;7459;53.590;10.062;2023-03-01T00:21:01;2.60;99.90
14737;DHT22;7459;53.590;10.062;2023-03-01T00:23:27;2.60;99.90
14737;DHT22;7459;53.590;10.062;2023-03-01T00:25:53;2.60;99.90
14737;DHT22;7459;53.590;10.062;2023-03-01T00:28:19;2.60;99.90
14737;DHT22;7459;53.590;10.062;2023-03-01T00:30:45;2.60;99.90
14737;DHT22;7459;53.590;10.062;2023-03-01T00:33:12;2.50;99.90
14737;DHT22;7459;53.590;10.062;2023-03-01T00:35:39;2.50;99.90
14737;DHT22;7459;53.590;10.062;2023-03-01T00:38:05;2.60;99.90
14737;DHT22;7459;53.590;10.062;2023-03-01T00:40:33;2.60;99.90
14737;DHT22;7459;53.590;10.062;2023-03-01T00:42:59;2.60;99.90
14737;DHT22;7459;53.590;10.062;2023-03-01T00:45:25;2.60;99.90
14737;DHT22;7459;53.590;10.062;2023-03-01T00:47:51;2.60;99.90
14737;DHT22;7459;53.590;10.062;2023-03-01T00:50:18;2.70;99.90
14737;DHT22;7459;53.590;10.062;2023-03-01T00:52:44;2.60;99.90
14737;DHT22;7459;53.590;10.062;2023-03-01T00:55:10;2.60;99.90
14737;DHT22;7459;53.590;10.062;2023-03-01T00:57:37;2.60;99.90
14737;DHT22;7459;53.590;10.062;2023-03-01T01:00:05;2.50;99.90
14737;DHT22;7459;53.590;10.062;2023-03-01T01:02:34;2.50;99.90
14737;DHT22;7459;53.590;10.062;2023-03-01T01:05:00;2.50;99.90
14737;DHT22;7459;53.590;10.062;2023-03-01T01:07:26;2.50;99.90
14737;DHT22;7459;53.590;10.062;2023-03-01T01:09:52;2.60;99.90
14737;DHT22;7459;53.590;10.062;2023-03-01T01:12:17;2.50;99.90
14737;DHT22;7459;53.590;10.062;2023-03-01T01:14:43;2.50;99.90
14737;DHT22;7459;53.590;10.062;2023-03-01T01:17:09;2.60;99.90
14737;DHT22;7459;53.590;10.062;2023-03-01T01:19:34;2.60;99.90
14737;DHT22;7459;53.590;10.062;2023-03-01T01:22:00;2.60;99.90
14737;DHT22;7459;53.590;10.062;2023-03-01T01:24:26;2.50;99.90
14737;DHT22;7459;53.590;10.062;2023-03-01T01:26:52;2.50;99.90
14737;DHT22;7459;53.590;10.062;2023-03-01T01:29:18;2.50;99.90
14737;DHT22;7459;53.590;10.062;2023-03-01T01:31:43;2.50;99.90
14737;DHT22;7459;53.590;10.062;2023-03-01T01:34:14;2.50;99.90
14737;DHT22;7459;53.590;10.062;2023-03-01T01:36:41;2.40;99.90
14737;DHT22;7459;53.590;10.062;2023-03-01T01:39:07;2.50;99.90
14737;DHT22;7459;53.590;10.062;2023-03-01T01:41:39;2.50;99.90
14737;DHT22;7459;53.590;10.062;2023-03-01T01:46:49;2.50;99.90
14737;DHT22;7459;53.590;10.062;2023-03-01T01:52:48;2.50;99.90
14737;DHT22;7459;53.590;10.062;2023-03-01T01:57:43;2.40;99.90
14737;DHT22;7459;53.590;10.062;2023-03-01T02:00:23;2.40;99.90
14737;DHT22;7459;53.590;10.062;2023-03-01T02:03:09;2.30;99.90
14737;DHT22;7459;53.590;10.062;2023-03-01T02:08:45;2.30;99.90
14737;DHT22;7459;53.590;10.062;2023-03-01T02:11:13;2.30;99.90
14737;DHT22;7459;53.590;10.062;2023-03-01T02:13:42;2.30;99.90
14737;DHT22;7459;53.590;10.062;2023-03-01T02:16:10;2.30;99.90
14737;DHT22;7459;53.590;10.062;2023-03-01T02:18:38;2.30;99.90
14737;DHT22;7459;53.590;10.062;2023-03-01T02:23:41;2.30;99.90
14737;DHT22;7459;53.590;10.062;2023-03-01T02:26:42;2.30;99.90
14737;DHT22;7459;53.590;10.062;2023-03-01T02:29:13;2.30;99.90
14737;DHT22;7459;53.590;10.062;2023-03-01T02:31:39;2.20;99.90
14737;DHT22;7459;53.590;10.062;2023-03-01T02:34:10;2.20;99.90
14737;DHT22;7459;53.590;10.062;2023-03-01T02:36:42;2.20;99.90
14737;DHT22;7459;53.590;10.062;2023-03-01T02:39:25;2.20;99.90
14737;DHT22;7459;53.590;10.062;2023-03-01T02:41:54;2.20;99.90
14737;DHT22;7459;53.590;10.062;2023-03-01T02:44:21;2.30;99.90
14737;DHT22;7459;53.590;10.062;2023-03-01T02:46:50;2.30;99.90
14737;DHT22;7459;53.590;10.062;2023-03-01T02:52:01;2.40;99.90
14737;DHT22;7459;53.590;10.062;2023-03-01T02:54:50;2.40;99.90
14737;DHT22;7459;53.590;10.062;2023-03-01T02:57:19;2.30;99.90
14737;DHT22;7459;53.590;10.062;2023-03-01T02:59:47;2.30;99.90
14737;DHT22;7459;53.590;10.062;2023-03-01T03:02:26;2.30;99.90
14737;DHT22;7459;53.590;10.062;2023-03-01T03:05:15;2.30;99.90
14737;DHT22;7459;53.590;10.062;2023-03-01T03:07:47;2.30;99.90
14737;DHT22;7459;53.590;10.062;2023-03-01T03:10:20;2.30;99.90
14737;DHT22;7459;53.590;10.062;2023-03-01T03:13:00;2.30;99.90
14737;DHT22;7459;53.590;10.062;2023-03-01T03:15:28;2.30;99.90
14737;DHT22;7459;53.590;10.062;2023-03-01T03:17:55;2.30;99.90
14737;DHT22;7459;53.590;10.062;2023-03-01T03:20:26;2.30;99.90
14737;DHT22;7459;53.590;10.062;2023-03-01T03:22:54;2.30;99.90
14737;DHT22;7459;53.590;10.062;2023-03-01T03:25:21;2.30;99.90
14737;DHT22;7459;53.590;10.062;2023-03-01T03:27:50;2.30;99.90
14737;DHT22;7459;53.590;10.062;2023-03-01T03:30:22;2.30;99.90
14737;DHT22;7459;53.590;10.062;2023-03-01T03:32:54;2.30;99.90
14737;DHT22;7459;53.590;10.062;2023-03-01T03:35:38;2.20;99.90
14737;DHT22;7459;53.590;10.062;2023-03-01T03:38:09;2.20;99.90
14737;DHT22;7459;53.590;10.062;2023-03-01T03:40:46;2.20;99.90
14737;DHT22;7459;53.590;10.062;2023-03-01T03:43:15;2.20;99.90
14737;DHT22;7459;53.590;10.062;2023-03-01T03:45:44;2.20;99.90
14737;DHT22;7459;53.590;10.062;2023-03-01T03:48:10;2.20;99.90
14737;DHT22;7459;53.590;10.062;2023-03-01T03:50:38;2.20;99.90
14737;DHT22;7459;53.590;10.062;2023-03-01T03:53:08;2.20;99.90
14737;DHT22;7459;53.590;10.062;2023-03-01T03:55:35;2.20;99.90
14737;DHT22;7459;53.590;10.062;2023-03-01T03:58:05;2.20;99.90
14737;DHT22;7459;53.590;10.062;2023-03-01T04:00:43;2.20;99.90
14737;DHT22;7459;53.590;10.062;2023-03-01T04:03:11;2.30;99.90
14737;DHT22;7459;53.590;10.062;2023-03-01T04:05:39;2.30;99.90
14737;DHT22;7459;53.590;10.062;2023-03-01T04:08:05;2.30;99.90
14737;DHT22;7459;53.590;10.062;2023-03-01T04:10:43;2.30;99.90
14737;DHT22;7459;53.590;10.062;2023-03-01T04:13:12;2.30;99.90
14737;DHT22;7459;53.590;10.062;2023-03-01T04:15:39;2.30;99.90
14737;DHT22;7459;53.590;10.062;2023-03-01T04:18:06;2.40;99.90
14737;DHT22;7459;53.590;10.062;2023-03-01T04:20:34;2.40;99.90
14737;DHT22;7459;53.590;10.062;2023-03-01T04:23:20;2.40;99.90
14737;DHT22;7459;53.590;10.062;2023-03-01T04:25:52;2.40;99.90
14737;DHT22;7459;53.590;10.062;2023-03-01T04:28:32;2.40;99.90
14737;DHT22;7459;53.590;10.062;2023-03-01T04:31:03;2.50;99.90
14737;DHT22;7459;53.590;10.062;2023-03-01T04:33:42;2.50;99.90
14737;DHT22;7459;53.590;10.062;2023-03-01T04:36:14;2.60;99.90
14737;DHT22;7459;53.590;10.062;2023-03-01T04:38:42;2.60;99.90
14737;DHT22;7459;53.590;10.062;2023-03-01T04:41:13;2.60;99.90
14737;DHT22;7459;53.590;10.062;2023-03-01T04:43:40;2.70;99.90
14737;DHT22;7459;53.590;10.062;2023-03-01T04:46:08;2.70;99.90
14737;DHT22;7459;53.590;10.062;2023-03-01T04:48:38;2.60;99.90
14737;DHT22;7459;53.590;10.062;2023-03-01T04:51:06;2.60;99.90
14737;DHT22;7459;53.590;10.062;2023-03-01T04:53:32;2.60;99.90
14737;DHT22;7459;53.590;10.062;2023-03-01T04:55:58;2.70;99.90
14737;DHT22;7459;53.590;10.062;2023-03-01T04:58:25;2.70;99.90
14737;DHT22;7459;53.590;10.062;2023-03-01T05:00:53;2.80;99.90
14737;DHT22;7459;53.590;10.062;2023-03-01T05:03:19;2.80;99.90
14737;DHT22;7459;53.590;10.062;2023-03-01T05:05:48;2.80;99.90
14737;DHT22;7459;53.590;10.062;2023-03-01T05:08:15;2.80;99.90
14737;DHT22;7459;53.590;10.062;2023-03-01T05:10:51;2.80;99.90
14737;DHT22;7459;53.590;10.062;2023-03-01T05:13:19;2.90;99.90
14737;DHT22;7459;53.590;10.062;2023-03-01T05:15:56;2.80;99.90
14737;DHT22;7459;53.590;10.062;2023-03-01T05:18:24;2.80;99.90
14737;DHT22;7459;53.590;10.062;2023-03-01T05:20:54;2.70;99.90
14737;DHT22;7459;53.590;10.062;2023-03-01T05:23:24;2.80;99.90
14737;DHT22;7459;53.590;10.062;2023-03-01T05:25:50;2.90;99.90
14737;DHT22;7459;53.590;10.062;2023-03-01T05:28:19;2.90;99.90
14737;DHT22;7459;53.590;10.062;2023-03-01T05:30:46;2.90;99.90
14737;DHT22;7459;53.590;10.062;2023-03-01T05:33:12;2.90;99.90
14737;DHT22;7459;53.590;10.062;2023-03-01T05:35:44;2.90;99.90
14737;DHT22;7459;53.590;10.062;2023-03-01T05:38:12;2.90;99.90
14737;DHT22;7459;53.590;10.062;2023-03-01T05:40:42;2.90;99.90
14737;DHT22;7459;53.590;10.062;2023-03-01T05:43:10;2.90;99.90
14737;DHT22;7459;53.590;10.062;2023-03-01T05:45:39;3.00;99.90
14737;DHT22;7459;53.590;10.062;2023-03-01T05:48:06;3.00;99.90
14737;DHT22;7459;53.590;10.062;2023-03-01T05:50:35;2.90;99.90
14737;DHT22;7459;53.590;10.062;2023-03-01T05:53:11;3.00;99.90
14737;DHT22;7459;53.590;10.062;2023-03-01T05:55:41;3.00;99.90
14737;DHT22;7459;53.590;10.062;2023-03-01T05:58:11;3.00;99.90
14737;DHT22;7459;53.590;10.062;2023-03-01T06:00:39;2.90;99.90
14737;DHT22;7459;53.590;10.062;2023-03-01T06:03:05;2.90;99.90
14737;DHT22;7459;53.590;10.062;2023-03-01T06:05:31;2.80;99.90
14737;DHT22;7459;53.590;10.062;2023-03-01T06:08:00;2.90;99.90
14737;DHT22;7459;53.590;10.062;2023-03-01T06:10:26;2.90;99.90
14737;DHT22;7459;53.590;10.062;2023-03-01T06:12:51;2.90;99.90
14737;DHT22;7459;53.590;10.062;2023-03-01T06:15:17;2.90;99.90
14737;DHT22;7459;53.590;10.062;2023-03-01T06:17:45;2.90;99.90
14737;DHT22;7459;53.590;10.062;2023-03-01T06:20:20;2.80;99.90
14737;DHT22;7459;53.590;10.062;2023-03-01T06:22:47;2.80;99.90
14737;DHT22;7459;53.590;10.062;2023-03-01T06:25:18;2.90;99.90
14737;DHT22;7459;53.590;10.062;2023-03-01T06:27:46;2.90;99.90
14737;DHT22;7459;53.590;10.062;2023-03-01T06:30:14;2.90;99.90
14737;DHT22;7459;53.590;10.062;2023-03-01T06:32:41;2.90;99.90
14737;DHT22;7459;53.590;10.062;2023-03-01T06:35:11;2.90;99.90
14737;DHT22;7459;53.590;10.062;2023-03-01T06:37:38;3.00;99.90
14737;DHT22;7459;53.590;10.062;2023-03-01T06:40:05;3.00;99.90
14737;DHT22;7459;53.590;10.062;2023-03-01T06:42:34;2.90;99.90
14737;DHT22;7459;53.590;10.062;2023-03-01T06:45:01;3.00;99.90
14737;DHT22;7459;53.590;10.062;2023-03-01T06:47:26;3.00;99.90
14737;DHT22;7459;53.590;10.062;2023-03-01T06:49:52;3.00;99.90
14737;DHT22;7459;53.590;10.062;2023-03-01T06:52:18;3.00;99.90
14737;DHT22;7459;53.590;10.062;2023-03-01T06:54:44;3.00;99.90
14737;DHT22;7459;53.590;10.062;2023-03-01T06:57:09;3.00;99.90
14737;DHT22;7459;53.590;10.062;2023-03-01T06:59:35;3.00;99.90
14737;DHT22;7459;53.590;10.062;2023-03-01T07:02:01;3.00;99.90
14737;DHT22;7459;53.590;10.062;2023-03-01T07:04:26;3.10;99.90
14737;DHT22;7459;53.590;10.062;2023-03-01T07:06:53;3.10;99.90
14737;DHT22;7459;53.590;10.062;2023-03-01T07:09:21;3.10;99.90
14737;DHT22;7459;53.590;10.062;2023-03-01T07:11:48;3.10;99.90
14737;DHT22;7459;53.590;10.062;2023-03-01T07:14:14;3.10;99.90
14737;DHT22;7459;53.590;10.062;2023-03-01T07:16:40;3.10;99.90
14737;DHT22;7459;53.590;10.062;2023-03-01T07:19:06;3.10;99.90
14737;DHT22;7459;53.590;10.062;2023-03-01T07:21:31;3.10;99.90
14737;DHT22;7459;53.590;10.062;2023-03-01T07:23:57;3.10;99.90
14737;DHT22;7459;53.590;10.062;2023-03-01T07:26:23;3.10;99.90
14737;DHT22;7459;53.590;10.062;2023-03-01T07:28:48;3.10;99.90
14737;DHT22;7459;53.590;10.062;2023-03-01T07:31:14;3.10;99.90
14737;DHT22;7459;53.590;10.062;2023-03-01T07:33:40;3.10;99.90
14737;DHT22;7459;53.590;10.062;2023-03-01T07:36:06;3.10;99.90
14737;DHT22;7459;53.590;10.062;2023-03-01T07:38:32;3.10;99.90
14737;DHT22;7459;53.590;10.062;2023-03-01T07:41:00;3.10;99.90
14737;DHT22;7459;53.590;10.062;2023-03-01T07:43:28;3.10;99.90
14737;DHT22;7459;53.590;10.062;2023-03-01T07:45:57;3.00;99.90
14737;DHT22;7459;53.590;10.062;2023-03-01T07:48:23;3.10;99.90
14737;DHT22;7459;53.590;10.062;2023-03-01T07:50:49;3.10;99.90
14737;DHT22;7459;53.590;10.062;2023-03-01T07:53:15;3.10;99.90
14737;DHT22;7459;53.590;10.062;2023-03-01T07:55:40;3.10;99.90
14737;DHT22;7459;53.590;10.062;2023-03-01T07:58:06;3.10;99.90
14737;DHT22;7459;53.590;10.062;2023-03-01T08:00:32;3.10;99.90
14737;DHT22;7459;53.590;10.062;2023-03-01T08:03:01;3.20;99.90
14737;DHT22;7459;53.590;10.062;2023-03-01T08:05:28;3.20;99.90
14737;DHT22;7459;53.590;10.062;2023-03-01T08:07:54;3.20;99.90
14737;DHT22;7459;53.590;10.062;2023-03-01T08:10:20;3.30;99.90
14737;DHT22;7459;53.590;10.062;2023-03-01T08:12:45;3.30;99.90
14737;DHT22;7459;53.590;10.062;2023-03-01T08:15:11;3.30;99.90
14737;DHT22;7459;53.590;10.062;2023-03-01T08:17:37;3.30;99.90
14737;DHT22;7459;53.590;10.062;2023-03-01T08:20:03;3.30;99.90
14737;DHT22;7459;53.590;10.062;2023-03-01T08:22:31;3.40;99.90
14737;DHT22;7459;53.590;10.062;2023-03-01T08:24:57;3.40;99.90
14737;DHT22;7459;53.590;10.062;2023-03-01T08:27:22;3.50;99.90
14737;DHT22;7459;53.590;10.062;2023-03-01T08:29:48;3.50;99.90
14737;DHT22;7459;53.590;10.062;2023-03-01T08:32:14;3.60;99.90
14737;DHT22;7459;53.590;10.062;2023-03-01T08:34:40;3.60;99.90
14737;DHT22;7459;53.590;10.062;2023-03-01T08:37:05;3.60;99.90
14737;DHT22;7459;53.590;10.062;2023-03-01T08:39:31;3.70;99.90
14737;DHT22;7459;53.590;10.062;2023-03-01T08:41:57;3.70;99.90
14737;DHT22;7459;53.590;10.062;2023-03-01T08:44:22;3.80;99.90
14737;DHT22;7459;53.590;10.062;2023-03-01T08:46:48;3.80;99.90
14737;DHT22;7459;53.590;10.062;2023-03-01T08:49:18;3.80;99.90
14737;DHT22;7459;53.590;10.062;2023-03-01T08:51:45;3.80;99.90
14737;DHT22;7459;53.590;10.062;2023-03-01T08:54:14;3.80;99.90
14737;DHT22;7459;53.590;10.062;2023-03-01T08:56:42;3.80;99.90
14737;DHT22;7459;53.590;10.062;2023-03-01T08:59:09;3.90;99.90
14737;DHT22;7459;53.590;10.062;2023-03-01T09:01:36;3.90;99.90
14737;DHT22;7459;53.590;10.062;2023-03-01T09:04:03;3.90;99.90
14737;DHT22;7459;53.590;10.062;2023-03-01T09:06:33;3.90;99.90
14737;DHT22;7459;53.590;10.062;2023-03-01T09:08:59;3.90;99.90
14737;DHT22;7459;53.590;10.062;2023-03-01T09:11:25;4.00;99.90
14737;DHT22;7459;53.590;10.062;2023-03-01T09:13:51;4.00;99.90
14737;DHT22;7459;53.590;10.062;2023-03-01T09:16:18;4.00;99.90
14737;DHT22;7459;53.590;10.062;2023-03-01T09:18:49;4.00;99.90
14737;DHT22;7459;53.590;10.062;2023-03-01T09:21:17;4.10;99.90
14737;DHT22;7459;53.590;10.062;2023-03-01T09:23:45;4.10;99.90
14737;DHT22;7459;53.590;10.062;2023-03-01T09:26:16;4.00;99.90
14737;DHT22;7459;53.590;10.062;2023-03-01T09:28:45;4.00;99.90
14737;DHT22;7459;53.590;10.062;2023-03-01T09:31:12;4.00;99.90
14737;DHT22;7459;53.590;10.062;2023-03-01T09:33:40;4.00;99.90
14737;DHT22;7459;53.590;10.062;2023-03-01T09:36:10;4.00;99.90
14737;DHT22;7459;53.590;10.062;2023-03-01T09:38:37;4.00;99.90
14737;DHT22;7459;53.590;10.062;2023-03-01T09:41:10;4.00;99.90
14737;DHT22;7459;53.590;10.062;2023-03-01T09:43:59;4.00;99.90
14737;DHT22;7459;53.590;10.062;2023-03-01T09:46:32;4.10;99.90
14737;DHT22;7459;53.590;10.062;2023-03-01T09:49:14;4.10;99.90
14737;DHT22;7459;53.590;10.062;2023-03-01T09:51:42;4.10;99.90
14737;DHT22;7459;53.590;10.062;2023-03-01T09:54:15;4.20;99.90
14737;DHT22;7459;53.590;10.062;2023-03-01T09:56:45;4.10;99.90
14737;DHT22;7459;53.590;10.062;2023-03-01T09:59:29;4.10;99.90
14737;DHT22;7459;53.590;10.062;2023-03-01T10:05:05;4.10;99.90
14737;DHT22;7459;53.590;10.062;2023-03-01T10:10:34;4.30;99.90
14737;DHT22;7459;53.590;10.062;2023-03-01T10:16:51;4.40;99.90
14737;DHT22;7459;53.590;10.062;2023-03-01T10:19:44;4.50;99.90
14737;DHT22;7459;53.590;10.062;2023-03-01T10:22:26;4.60;99.90
14737;DHT22;7459;53.590;10.062;2023-03-01T10:24:54;4.60;99.90
14737;DHT22;7459;53.590;10.062;2023-03-01T10:30:40;4.70;99.90
14737;DHT22;7459;53.590;10.062;2023-03-01T10:33:22;4.80;99.90
14737;DHT22;7459;53.590;10.062;2023-03-01T10:35:49;4.80;99.90
14737;DHT22;7459;53.590;10.062;2023-03-01T10:38:16;4.90;99.90
14737;DHT22;7459;53.590;10.062;2023-03-01T10:40:55;4.90;99.90
14737;DHT22;7459;53.590;10.062;2023-03-01T10:43:23;5.00;99.90
14737;DHT22;7459;53.590;10.062;2023-03-01T10:45:50;5.00;99.90
14737;DHT22;7459;53.590;10.062;2023-03-01T10:48:25;5.00;99.90
14737;DHT22;7459;53.590;10.062;2023-03-01T10:53:27;5.20;99.90
14737;DHT22;7459;53.590;10.062;2023-03-01T10:56:08;5.30;99.90
14737;DHT22;7459;53.590;10.062;2023-03-01T10:58:37;5.30;99.90
14737;DHT22;7459;53.590;10.062;2023-03-01T11:01:06;5.30;99.90
14737;DHT22;7459;53.590;10.062;2023-03-01T11:04:11;5.40;99.90
14737;DHT22;7459;53.590;10.062;2023-03-01T11:06:39;5.40;99.90
14737;DHT22;7459;53.590;10.062;2023-03-01T11:09:23;5.50;99.90
14737;DHT22;7459;53.590;10.062;2023-03-01T11:11:54;5.60;99.90
14737;DHT22;7459;53.590;10.062;2023-03-01T11:14:25;5.70;99.90
14737;DHT22;7459;53.590;10.062;2023-03-01T11:19:29;5.80;99.90
14737;DHT22;7459;53.590;10.062;2023-03-01T11:21:57;5.80;99.90
14737;DHT22;7459;53.590;10.062;2023-03-01T11:27:21;6.10;99.90
14737;DHT22;7459;53.590;10.062;2023-03-01T11:32:45;6.30;99.90
14737;DHT22;7459;53.590;10.062;2023-03-01T11:35:20;6.40;99.90
14737;DHT22;7459;53.590;10.062;2023-03-01T11:40:46;6.60;99.90
14737;DHT22;7459;53.590;10.062;2023-03-01T11:47:02;6.80;99.90
14737;DHT22;7459;53.590;10.062;2023-03-01T11:50:26;7.00;99.90
14737;DHT22;7459;53.590;10.062;2023-03-01T12:01:38;7.50;99.90
14737;DHT22;7459;53.590;10.062;2023-03-01T12:07:18;7.80;99.90
14737;DHT22;7459;53.590;10.062;2023-03-01T12:10:23;7.90;99.90
14737;DHT22;7459;53.590;10.062;2023-03-01T12:13:13;8.00;99.90
14737;DHT22;7459;53.590;10.062;2023-03-01T12:21:58;8.30;99.90
14737;DHT22;7459;53.590;10.062;2023-03-01T12:27:49;8.60;99.90
14737;DHT22;7459;53.590;10.062;2023-03-01T12:48:34;9.00;99.90
14737;DHT22;7459;53.590;10.062;2023-03-01T12:51:12;9.00;99.90
14737;DHT22;7459;53.590;10.062;2023-03-01T12:53:42;9.10;99.90
14737;DHT22;7459;53.590;10.062;2023-03-01T12:56:19;9.10;99.90
14737;DHT22;7459;53.590;10.062;2023-03-01T13:02:26;9.10;99.90
14737;DHT22;7459;53.590;10.062;2023-03-01T13:05:19;9.10;99.90
14737;DHT22;7459;53.590;10.062;2023-03-01T13:08:36;9.10;99.90
14737;DHT22;7459;53.590;10.062;2023-03-01T13:10:52;9.10;99.90
14737;DHT22;7459;53.590;10.062;2023-03-01T13:13:23;9.00;99.90
14737;DHT22;7459;53.590;10.062;2023-03-01T13:15:51;9.00;99.90
14737;DHT22;7459;53.590;10.062;2023-03-01T13:20:46;9.00;99.90
14737;DHT22;7459;53.590;10.062;2023-03-01T13:31:04;8.90;99.90
14737;DHT22;7459;53.590;10.062;2023-03-01T13:44:32;9.00;99.90
14737;DHT22;7459;53.590;10.062;2023-03-01T13:49:53;9.00;99.90
14737;DHT22;7459;53.590;10.062;2023-03-01T13:55:00;9.00;99.90
14737;DHT22;7459;53.590;10.062;2023-03-01T13:57:37;9.00;99.90
14737;DHT22;7459;53.590;10.062;2023-03-01T14:00:07;9.10;99.90
14737;DHT22;7459;53.590;10.062;2023-03-01T14:03:09;9.20;99.90
14737;DHT22;7459;53.590;10.062;2023-03-01T14:05:38;9.20;99.90
14737;DHT22;7459;53.590;10.062;2023-03-01T14:08:05;9.30;99.90
14737;DHT22;7459;53.590;10.062;2023-03-01T14:10:53;9.40;99.90
14737;DHT22;7459;53.590;10.062;2023-03-01T14:13:45;9.40;99.90
14737;DHT22;7459;53.590;10.062;2023-03-01T14:16:27;9.30;99.90
14737;DHT22;7459;53.590;10.062;2023-03-01T14:19:19;9.30;99.90
14737;DHT22;7459;53.590;10.062;2023-03-01T14:22:04;9.30;99.90
14737;DHT22;7459;53.590;10.062;2023-03-01T14:24:59;9.40;99.90
14737;DHT22;7459;53.590;10.062;2023-03-01T14:27:32;9.50;99.90
14737;DHT22;7459;53.590;10.062;2023-03-01T14:30:03;9.50;99.90
14737;DHT22;7459;53.590;10.062;2023-03-01T14:32:53;9.60;99.90
14737;DHT22;7459;53.590;10.062;2023-03-01T14:35:25;9.70;99.90
14737;DHT22;7459;53.590;10.062;2023-03-01T14:37:52;9.60;99.90
14737;DHT22;7459;53.590;10.062;2023-03-01T14:40:22;9.60;99.90
14737;DHT22;7459;53.590;10.062;2023-03-01T14:43:22;9.60;99.90
14737;DHT22;7459;53.590;10.062;2023-03-01T14:45:50;9.70;99.90
14737;DHT22;7459;53.590;10.062;2023-03-01T14:48:17;9.70;99.90
14737;DHT22;7459;53.590;10.062;2023-03-01T14:50:44;9.80;99.90
14737;DHT22;7459;53.590;10.062;2023-03-01T14:53:25;9.80;99.90
14737;DHT22;7459;53.590;10.062;2023-03-01T14:55:54;9.80;99.90
14737;DHT22;7459;53.590;10.062;2023-03-01T14:58:23;9.80;99.90
14737;DHT22;7459;53.590;10.062;2023-03-01T15:00:56;9.80;99.90
14737;DHT22;7459;53.590;10.062;2023-03-01T15:03:43;9.70;99.90
14737;DHT22;7459;53.590;10.062;2023-03-01T15:06:11;9.80;99.90
14737;DHT22;7459;53.590;10.062;2023-03-01T15:08:42;9.90;99.90
14737;DHT22;7459;53.590;10.062;2023-03-01T15:13:39;9.90;99.90
14737;DHT22;7459;53.590;10.062;2023-03-01T15:16:13;9.80;99.90
14737;DHT22;7459;53.590;10.062;2023-03-01T15:18:55;9.80;99.90
14737;DHT22;7459;53.590;10.062;2023-03-01T15:21:24;9.80;99.90
14737;DHT22;7459;53.590;10.062;2023-03-01T15:26:49;9.70;99.90
14737;DHT22;7459;53.590;10.062;2023-03-01T15:29:25;9.60;99.90
14737;DHT22;7459;53.590;10.062;2023-03-01T15:32:25;9.40;99.90
14737;DHT22;7459;53.590;10.062;2023-03-01T15:34:51;9.30;99.90
14737;DHT22;7459;53.590;10.062;2023-03-01T15:37:52;9.20;99.90
14737;DHT22;7459;53.590;10.062;2023-03-01T15:43:00;8.90;99.90
14737;DHT22;7459;53.590;10.062;2023-03-01T15:45:29;8.90;99.90
14737;DHT22;7459;53.590;10.062;2023-03-01T15:47:57;8.80;99.90
14737;DHT22;7459;53.590;10.062;2023-03-01T15:50:32;8.80;99.90
14737;DHT22;7459;53.590;10.062;2023-03-01T15:53:01;8.70;99.90
14737;DHT22;7459;53.590;10.062;2023-03-01T15:55:31;8.60;99.90
14737;DHT22;7459;53.590;10.062;2023-03-01T15:58:15;8.50;99.90
14737;DHT22;7459;53.590;10.062;2023-03-01T16:00:45;8.50;99.90
14737;DHT22;7459;53.590;10.062;2023-03-01T16:03:12;8.40;99.90
14737;DHT22;7459;53.590;10.062;2023-03-01T16:05:38;8.40;99.90
14737;DHT22;7459;53.590;10.062;2023-03-01T16:08:05;8.30;99.90
14737;DHT22;7459;53.590;10.062;2023-03-01T16:10:32;8.20;99.90
14737;DHT22;7459;53.590;10.062;2023-03-01T16:12:59;8.20;99.90
14737;DHT22;7459;53.590;10.062;2023-03-01T16:15:29;8.10;99.90
14737;DHT22;7459;53.590;10.062;2023-03-01T16:17:56;8.00;99.90
14737;DHT22;7459;53.590;10.062;2023-03-01T16:20:23;8.00;99.90
14737;DHT22;7459;53.590;10.062;2023-03-01T16:22:50;7.90;99.90
14737;DHT22;7459;53.590;10.062;2023-03-01T16:25:18;7.90;99.90
14737;DHT22;7459;53.590;10.062;2023-03-01T16:27:46;7.90;99.90
14737;DHT22;7459;53.590;10.062;2023-03-01T16:30:19;7.80;99.90
14737;DHT22;7459;53.590;10.062;2023-03-01T16:32:47;7.70;99.90
14737;DHT22;7459;53.590;10.062;2023-03-01T16:35:16;7.70;99.90
14737;DHT22;7459;53.590;10.062;2023-03-01T16:37:43;7.70;99.90
14737;DHT22;7459;53.590;10.062;2023-03-01T16:40:19;7.60;99.90
14737;DHT22;7459;53.590;10.062;2023-03-01T16:42:48;7.60;99.90
14737;DHT22;7459;53.590;10.062;2023-03-01T16:45:14;7.50;99.90
14737;DHT22;7459;53.590;10.062;2023-03-01T16:47:39;7.50;99.90
14737;DHT22;7459;53.590;10.062;2023-03-01T16:50:05;7.50;99.90
14737;DHT22;7459;53.590;10.062;2023-03-01T16:52:31;7.40;99.90
14737;DHT22;7459;53.590;10.062;2023-03-01T16:54:58;7.40;99.90
14737;DHT22;7459;53.590;10.062;2023-03-01T16:57:24;7.30;99.90
14737;DHT22;7459;53.590;10.062;2023-03-01T16:59:53;7.20;99.90
14737;DHT22;7459;53.590;10.062;2023-03-01T17:02:19;7.20;99.90
14737;DHT22;7459;53.590;10.062;2023-03-01T17:04:45;7.20;99.90
14737;DHT22;7459;53.590;10.062;2023-03-01T17:07:16;7.20;99.90
14737;DHT22;7459;53.590;10.062;2023-03-01T17:09:42;7.10;99.90
14737;DHT22;7459;53.590;10.062;2023-03-01T17:12:08;7.10;99.90
14737;DHT22;7459;53.590;10.062;2023-03-01T17:14:36;7.10;99.90
14737;DHT22;7459;53.590;10.062;2023-03-01T17:17:03;7.00;99.90
14737;DHT22;7459;53.590;10.062;2023-03-01T17:19:29;7.00;99.90
14737;DHT22;7459;53.590;10.062;2023-03-01T17:21:54;7.00;99.90
14737;DHT22;7459;53.590;10.062;2023-03-01T17:24:20;6.90;99.90
14737;DHT22;7459;53.590;10.062;2023-03-01T17:26:46;6.80;99.90
14737;DHT22;7459;53.590;10.062;2023-03-01T17:29:12;6.80;99.90
14737;DHT22;7459;53.590;10.062;2023-03-01T17:31:38;6.70;99.90
14737;DHT22;7459;53.590;10.062;2023-03-01T17:34:03;6.70;99.90
14737;DHT22;7459;53.590;10.062;2023-03-01T17:36:29;6.60;99.90
14737;DHT22;7459;53.590;10.062;2023-03-01T17:38:55;6.50;99.90
14737;DHT22;7459;53.590;10.062;2023-03-01T17:41:21;6.50;99.90
14737;DHT22;7459;53.590;10.062;2023-03-01T17:43:49;6.40;99.90
14737;DHT22;7459;53.590;10.062;2023-03-01T17:46:15;6.40;99.90
14737;DHT22;7459;53.590;10.062;2023-03-01T17:48:41;6.30;99.90
14737;DHT22;7459;53.590;10.062;2023-03-01T17:51:08;6.20;99.90
14737;DHT22;7459;53.590;10.062;2023-03-01T17:53:34;6.20;99.90
14737;DHT22;7459;53.590;10.062;2023-03-01T17:56:02;6.10;99.90
14737;DHT22;7459;53.590;10.062;2023-03-01T18:00:55;5.80;99.90
14737;DHT22;7459;53.590;10.062;2023-03-01T18:05:48;5.70;99.90
14737;DHT22;7459;53.590;10.062;2023-03-01T18:08:14;5.80;99.90
14737;DHT22;7459;53.590;10.062;2023-03-01T18:10:40;5.60;99.90
14737;DHT22;7459;53.590;10.062;2023-03-01T18:13:06;5.60;99.90
14737;DHT22;7459;53.590;10.062;2023-03-01T18:15:32;5.40;99.90